Time;durP1;ratioP1;P1;durP2;ratioP2;P2;SDS_P1;SDS_P2;PMS_P1;PMS_P2;Temp;Humidity;BMP_temperature;BMP_pressure;BME280_temperature;BME280_humidity;BME280_pressure;Samples;Min_cycle;Max_cycle;Signal;HPM_P1;HPM_P2
2022/10/01 05:59:52;;;;;;;0.67;0.67;;;19.10;99.90;;;;;;5086326;28;20567;-63
2022/10/01 06:02:18;;;;;;;1.10;1.00;;;19.20;99.90;;;;;;5069339;28;20464;-65
2022/10/01 06:04:45;;;;;;;0.90;0.90;;;19.20;99.90;;;;;;5068839;28;20535;-64
2022/10/01 06:07:12;;;;;;;0.70;0.70;;;19.20;99.90;;;;;;5068882;28;20479;-62
2022/10/01 06:09:39;;;;;;;1.30;1.00;;;19.30;99.90;;;;;;5068910;28;20922;-65
2022/10/01 06:12:09;;;;;;;1.73;1.00;;;19.40;99.90;;;;;;5069164;28;20435;-64
2022/10/01 06:14:36;;;;;;;1.20;1.00;;;19.40;99.90;;;;;;5068825;28;20443;-64
2022/10/01 06:17:04;;;;;;;1.60;1.23;;;19.40;99.90;;;;;;5068666;28;20526;-64
2022/10/01 06:19:31;;;;;;;1.17;1.10;;;19.40;99.80;;;;;;5068465;28;21062;-65
2022/10/01 06:21:57;;;;;;;1.50;1.20;;;19.50;99.90;;;;;;5068592;28;20442;-65
2022/10/01 06:24:25;;;;;;;1.27;0.90;;;19.50;99.80;;;;;;5068593;28;20447;-65
2022/10/01 06:26:52;;;;;;;1.33;1.10;;;19.50;99.60;;;;;;5068347;28;20451;-65
2022/10/01 06:29:19;;;;;;;0.80;0.80;;;19.50;99.70;;;;;;5068497;28;20443;-65
2022/10/01 06:31:47;;;;;;;0.97;0.97;;;19.50;99.60;;;;;;5068180;28;20502;-64
2022/10/01 06:34:15;;;;;;;0.97;0.97;;;19.60;99.60;;;;;;5068030;28;20440;-61
2022/10/01 06:36:42;;;;;;;2.10;0.90;;;19.60;99.90;;;;;;5068375;28;20887;-66
2022/10/01 06:39:09;;;;;;;1.43;1.10;;;19.70;99.90;;;;;;5068264;28;20509;-66
2022/10/01 06:41:36;;;;;;;0.73;0.73;;;19.70;99.50;;;;;;5068225;28;20550;-63
2022/10/01 06:44:02;;;;;;;1.27;0.80;;;19.70;99.40;;;;;;5068468;28;20849;-63
2022/10/01 06:46:30;;;;;;;1.17;1.07;;;19.70;99.30;;;;;;5068250;28;21013;-63
2022/10/01 06:48:57;;;;;;;0.93;0.67;;;19.70;99.30;;;;;;5068205;28;20440;-62
2022/10/01 06:54:06;;;;;;;0.93;0.93;;;19.70;99.20;;;;;;5067445;28;20936;-64
2022/10/01 06:56:34;;;;;;;0.80;0.80;;;19.70;99.10;;;;;;5067880;28;20486;-64
2022/10/01 06:59:01;;;;;;;0.90;0.80;;;19.70;99.10;;;;;;5068165;28;20908;-60
2022/10/01 07:01:28;;;;;;;0.80;0.80;;;19.70;99.00;;;;;;5068032;28;20550;-64
2022/10/01 07:03:55;;;;;;;0.67;0.67;;;19.70;98.90;;;;;;5067627;28;20452;-61
2022/10/01 07:06:22;;;;;;;0.67;0.67;;;19.70;98.80;;;;;;5067647;28;20470;-64
2022/10/01 07:08:50;;;;;;;0.53;0.53;;;19.80;99.00;;;;;;5067626;28;20862;-61
2022/10/01 07:11:18;;;;;;;0.87;0.83;;;19.80;98.80;;;;;;5054050;28;20507;-61
2022/10/01 07:13:45;;;;;;;1.67;0.80;;;19.80;99.10;;;;;;5054164;28;20456;-64
2022/10/01 07:16:12;;;;;;;2.00;1.10;;;19.80;98.70;;;;;;5054436;28;20445;-62
2022/10/01 07:18:39;;;;;;;1.10;0.90;;;19.80;99.30;;;;;;5054278;28;20475;-58
2022/10/01 07:21:06;;;;;;;1.63;1.07;;;19.90;99.90;;;;;;5054384;28;20530;-61
2022/10/01 07:23:33;;;;;;;1.23;1.23;;;19.90;99.40;;;;;;5053961;28;20870;-59
2022/10/01 07:26:04;;;;;;;2.00;0.80;;;19.90;99.90;;;;;;5054262;28;20907;-60
2022/10/01 07:28:30;;;;;;;1.33;0.90;;;19.90;99.90;;;;;;5053882;28;20527;-61
2022/10/01 07:31:00;;;;;;;1.10;0.93;;;19.90;99.90;;;;;;5053688;28;20471;-58
2022/10/01 07:33:27;;;;;;;1.10;0.90;;;19.90;99.90;;;;;;5053841;28;20531;-62
2022/10/01 07:35:54;;;;;;;2.70;1.10;;;19.90;99.90;;;;;;5053723;28;20459;-59
2022/10/01 07:38:21;;;;;;;1.27;0.87;;;19.90;99.90;;;;;;5053700;28;20912;-56
2022/10/01 07:40:51;;;;;;;1.20;1.10;;;19.90;99.90;;;;;;5054053;28;20469;-59
2022/10/01 07:43:19;;;;;;;0.93;0.93;;;19.90;99.90;;;;;;5053743;28;20544;-58
2022/10/01 07:45:48;;;;;;;0.87;0.83;;;19.90;99.90;;;;;;5053722;28;20480;-58
2022/10/01 07:48:15;;;;;;;5.60;1.80;;;19.90;99.90;;;;;;5053509;28;20540;-61
2022/10/01 07:50:44;;;;;;;1.17;0.90;;;19.90;99.90;;;;;;5053682;28;20552;-56
2022/10/01 07:53:11;;;;;;;1.30;1.20;;;19.90;99.90;;;;;;5053557;28;20448;-58
2022/10/01 07:55:38;;;;;;;1.92;1.10;;;19.90;99.90;;;;;;5053749;28;20480;-66
2022/10/01 07:58:05;;;;;;;3.63;1.30;;;19.90;99.90;;;;;;5053205;28;20214;-65
2022/10/01 08:00:35;;;;;;;1.43;1.20;;;20.00;99.90;;;;;;5053222;28;20464;-65
2022/10/01 08:03:02;;;;;;;0.80;0.80;;;20.00;99.90;;;;;;5054045;28;20454;-64
2022/10/01 08:05:30;;;;;;;0.70;0.70;;;20.00;99.90;;;;;;5054493;28;21020;-63
2022/10/01 08:07:59;;;;;;;1.37;1.03;;;20.00;99.90;;;;;;5053383;28;20445;-63
2022/10/01 08:10:26;;;;;;;1.30;1.20;;;20.10;99.90;;;;;;5053052;28;20464;-63
2022/10/01 08:13:00;;;;;;;3.53;1.43;;;20.00;99.90;;;;;;5050835;28;20886;-61
2022/10/01 08:15:27;;;;;;;1.80;0.80;;;20.00;99.90;;;;;;5053905;28;20448;-60
2022/10/01 08:17:55;;;;;;;1.10;1.10;;;20.00;99.90;;;;;;5053636;28;20886;-60
2022/10/01 08:20:22;;;;;;;1.03;0.93;;;19.90;99.90;;;;;;5053358;28;20495;-60
2022/10/01 08:22:50;;;;;;;1.93;1.17;;;19.90;99.90;;;;;;5052507;28;20448;-60
2022/10/01 08:25:17;;;;;;;0.93;0.90;;;19.90;99.90;;;;;;5053367;28;20449;-59
2022/10/01 08:27:43;;;;;;;0.93;0.90;;;19.90;99.90;;;;;;5053356;28;20876;-62
2022/10/01 08:30:11;;;;;;;0.80;0.80;;;19.90;99.90;;;;;;5053628;28;20500;-60
2022/10/01 08:32:38;;;;;;;1.83;1.00;;;19.90;99.90;;;;;;5053230;28;20504;-60
2022/10/01 08:35:07;;;;;;;1.60;0.93;;;19.90;99.90;;;;;;5053256;28;20549;-61
2022/10/01 08:37:34;;;;;;;1.27;1.17;;;20.00;99.90;;;;;;5053360;28;20995;-62
2022/10/01 08:40:01;;;;;;;1.53;1.47;;;20.10;99.90;;;;;;5053727;28;20515;-60
2022/10/01 08:42:51;;;;;;;1.40;0.90;;;20.20;99.90;;;;;;5052534;28;20440;-63
2022/10/01 08:45:25;;;;;;;2.80;1.10;;;20.40;99.90;;;;;;5053242;28;20451;-65
2022/10/01 08:47:59;;;;;;;0.80;0.80;;;20.50;99.90;;;;;;5054033;28;20444;-68
2022/10/01 08:50:36;;;;;;;0.90;0.87;;;20.50;99.90;;;;;;5054991;28;20545;-68
2022/10/01 08:53:06;;;;;;;1.33;0.90;;;20.40;99.90;;;;;;5055006;28;20450;-63
2022/10/01 08:55:36;;;;;;;1.38;0.88;;;20.30;99.90;;;;;;5052675;28;20428;-66
2022/10/01 08:58:06;;;;;;;0.90;0.90;;;20.40;99.90;;;;;;5052460;28;20267;-64
2022/10/01 09:00:35;;;;;;;3.20;1.07;;;20.40;99.90;;;;;;5052299;28;20993;-62
2022/10/01 09:03:06;;;;;;;2.93;1.40;;;20.40;99.90;;;;;;5052160;28;20455;-59
2022/10/01 09:05:45;;;;;;;1.73;1.30;;;20.30;99.90;;;;;;5053550;28;20453;-64
2022/10/01 09:08:23;;;;;;;4.07;3.20;;;20.30;99.90;;;;;;5053123;28;20438;-66
2022/10/01 09:10:55;;;;;;;1.40;1.10;;;20.30;99.90;;;;;;5052232;28;21003;-65
2022/10/01 09:13:50;;;;;;;1.20;1.20;;;20.50;99.90;;;;;;5052192;28;20537;-67
2022/10/01 09:16:24;;;;;;;2.43;1.70;;;20.60;99.90;;;;;;5052362;28;20873;-64
2022/10/01 09:19:05;;;;;;;1.37;1.20;;;20.70;99.90;;;;;;5052365;28;20481;-68
2022/10/01 09:21:47;;;;;;;1.33;1.33;;;20.50;99.90;;;;;;5052252;28;20463;-65
2022/10/01 09:24:16;;;;;;;2.00;1.67;;;20.40;99.90;;;;;;5052078;28;20527;-66
2022/10/01 09:26:48;;;;;;;1.50;1.23;;;20.30;99.90;;;;;;5051888;28;20952;-64
2022/10/01 09:29:22;;;;;;;3.33;1.67;;;20.30;99.90;;;;;;5052111;28;20444;-64
2022/10/01 09:31:51;;;;;;;1.53;1.17;;;20.30;99.90;;;;;;5052628;28;20464;-64
2022/10/01 09:34:28;;;;;;;1.60;1.17;;;20.30;99.90;;;;;;5052459;28;20822;-65
2022/10/01 09:37:09;;;;;;;1.50;1.40;;;20.30;99.90;;;;;;5051982;28;20820;-60
2022/10/01 09:39:42;;;;;;;1.27;1.17;;;20.30;99.90;;;;;;5051609;28;20476;-61
2022/10/01 09:42:09;;;;;;;1.50;1.30;;;20.30;99.90;;;;;;5052001;28;20444;-59
2022/10/01 09:44:36;;;;;;;2.10;1.63;;;20.30;99.90;;;;;;5051667;28;20455;-62
2022/10/01 09:47:12;;;;;;;3.63;0.90;;;20.30;99.90;;;;;;5051599;28;20444;-60
2022/10/01 09:49:42;;;;;;;3.30;1.57;;;20.30;99.90;;;;;;5051690;28;20448;-60
2022/10/01 09:52:18;;;;;;;2.77;2.40;;;20.30;99.90;;;;;;5051792;28;20450;-60
2022/10/01 09:54:49;;;;;;;4.70;2.60;;;20.40;99.90;;;;;;5051660;28;20448;-62
2022/10/01 09:57:22;;;;;;;8.50;3.43;;;20.40;99.90;;;;;;5051509;28;20446;-59
2022/10/01 09:59:55;;;;;;;14.10;4.63;;;20.40;99.90;;;;;;5051720;28;20846;-67
2022/10/01 10:02:25;;;;;;;11.67;4.17;;;20.40;99.90;;;;;;5052137;28;20483;-68
2022/10/01 10:05:00;;;;;;;11.10;4.23;;;20.40;99.90;;;;;;5051775;28;20960;-66
2022/10/01 10:07:31;;;;;;;6.27;3.27;;;20.40;99.90;;;;;;5051520;28;20455;-66
2022/10/01 10:10:07;;;;;;;6.73;3.73;;;20.40;99.90;;;;;;5051637;28;20468;-66
2022/10/01 10:12:34;;;;;;;3.53;2.23;;;20.50;99.90;;;;;;5051586;28;20511;-59
2022/10/01 10:15:08;;;;;;;8.33;5.20;;;20.50;99.90;;;;;;5051419;28;20452;-66
2022/10/01 10:17:36;;;;;;;7.80;3.27;;;20.40;99.90;;;;;;5051783;28;20445;-66
2022/10/01 10:20:11;;;;;;;10.80;3.90;;;20.40;99.90;;;;;;5051738;28;20495;-64
2022/10/01 10:22:39;;;;;;;6.87;2.40;;;20.40;99.90;;;;;;5051700;28;20842;-61
2022/10/01 10:25:16;;;;;;;9.50;3.70;;;20.40;99.90;;;;;;5051505;28;20448;-60
2022/10/01 10:27:53;;;;;;;7.53;2.83;;;20.50;99.90;;;;;;5051193;28;20456;-60
2022/10/01 10:30:22;;;;;;;8.90;3.20;;;20.50;99.90;;;;;;5051134;28;20472;-58
2022/10/01 10:32:48;;;;;;;7.10;3.17;;;20.60;99.90;;;;;;5051389;28;20819;-60
2022/10/01 10:35:19;;;;;;;4.03;3.00;;;20.60;99.90;;;;;;5051250;28;20539;-58
2022/10/01 10:37:50;;;;;;;4.93;2.23;;;20.60;99.90;;;;;;5051165;28;20448;-60
2022/10/01 10:40:19;;;;;;;5.33;3.07;;;20.70;99.90;;;;;;5051152;28;20556;-60
2022/10/01 10:42:49;;;;;;;7.47;2.47;;;20.70;99.90;;;;;;5051286;28;20455;-61
2022/10/01 10:45:21;;;;;;;6.37;2.70;;;20.70;99.90;;;;;;5052802;28;20820;-61
2022/10/01 10:47:50;;;;;;;6.90;2.43;;;20.70;99.90;;;;;;5054869;28;20449;-61
2022/10/01 10:50:29;;;;;;;3.00;2.67;;;20.70;99.90;;;;;;5054824;28;20470;-60
2022/10/01 10:52:58;;;;;;;4.00;2.17;;;20.70;99.90;;;;;;5054878;28;20452;-61
2022/10/01 10:55:29;;;;;;;2.03;1.60;;;20.70;99.90;;;;;;5054933;28;20546;-61
2022/10/01 10:57:55;;;;;;;3.23;2.40;;;20.70;99.90;;;;;;5054473;28;20456;-61
2022/10/01 11:00:24;;;;;;;5.63;2.90;;;20.70;99.90;;;;;;5054695;28;20498;-59
2022/10/01 11:02:55;;;;;;;5.33;1.73;;;20.80;99.90;;;;;;5054747;28;20599;-61
2022/10/01 11:05:24;;;;;;;3.93;2.20;;;20.80;99.90;;;;;;5054773;28;20448;-59
2022/10/01 11:07:55;;;;;;;9.40;2.50;;;20.80;99.90;;;;;;5054316;28;20510;-61
2022/10/01 11:10:37;;;;;;;6.80;2.10;;;20.80;99.90;;;;;;5054590;28;20838;-61
2022/10/01 11:13:24;;;;;;;5.10;2.03;;;20.80;99.90;;;;;;5054214;28;20530;-60
2022/10/01 11:16:28;;;;;;;1.80;1.70;;;20.80;99.90;;;;;;5054574;28;20961;-68
2022/10/01 11:19:15;;;;;;;4.20;2.43;;;20.70;99.90;;;;;;5031507;28;20452;-62
2022/10/01 11:21:59;;;;;;;2.10;1.90;;;20.70;99.90;;;;;;5034513;28;20460;-64
2022/10/01 11:24:44;;;;;;;7.33;1.90;;;20.70;99.90;;;;;;5034519;28;20453;-61
2022/10/01 11:27:23;;;;;;;3.33;2.10;;;20.70;99.90;;;;;;5034565;28;20564;-64
2022/10/01 11:30:00;;;;;;;2.93;1.67;;;20.70;99.90;;;;;;5041719;28;20901;-65
2022/10/01 11:32:33;;;;;;;4.07;2.90;;;20.60;99.90;;;;;;5054437;28;20984;-65
2022/10/01 11:35:20;;;;;;;3.87;2.00;;;20.60;99.90;;;;;;5054315;28;20805;-64
2022/10/01 11:38:04;;;;;;;1.73;1.60;;;20.60;99.90;;;;;;5051670;28;20535;-63
2022/10/01 11:40:36;;;;;;;3.50;1.60;;;20.60;99.90;;;;;;5053821;28;20480;-64
2022/10/01 11:43:15;;;;;;;2.97;1.57;;;20.50;99.90;;;;;;5054395;28;20473;-63
2022/10/01 11:45:46;;;;;;;3.23;1.73;;;20.50;99.90;;;;;;5054501;28;20535;-65
2022/10/01 11:48:22;;;;;;;2.10;1.70;;;20.50;99.90;;;;;;5053961;28;20450;-64
2022/10/01 11:50:53;;;;;;;3.43;1.70;;;20.50;99.90;;;;;;5053575;28;20475;-59
2022/10/01 11:53:29;;;;;;;5.20;1.53;;;20.50;99.90;;;;;;5053855;28;20444;-60
2022/10/01 11:58:50;;;;;;;2.57;1.63;;;20.50;99.90;;;;;;5053915;28;20440;-64
2022/10/01 12:01:25;;;;;;;3.90;1.80;;;20.50;99.90;;;;;;5053714;28;20488;-67
2022/10/01 12:04:03;;;;;;;2.53;1.50;;;20.50;99.90;;;;;;5053928;28;20542;-65
2022/10/01 12:06:35;;;;;;;2.30;1.90;;;20.50;99.90;;;;;;5053652;28;20451;-64
2022/10/01 12:09:09;;;;;;;1.80;1.70;;;20.50;99.90;;;;;;5053961;28;20444;-64
2022/10/01 12:11:40;;;;;;;1.93;1.83;;;20.50;99.90;;;;;;5054237;28;20606;-65
2022/10/01 12:14:15;;;;;;;2.57;2.37;;;20.50;99.90;;;;;;5053685;28;20539;-65
2022/10/01 12:16:48;;;;;;;1.80;1.30;;;20.50;99.90;;;;;;5053044;28;20996;-62
2022/10/01 12:19:20;;;;;;;1.70;1.13;;;20.50;99.90;;;;;;5054070;28;20884;-63
2022/10/01 12:21:51;;;;;;;1.87;1.77;;;20.50;99.90;;;;;;5054000;28;20467;-64
2022/10/01 12:24:21;;;;;;;2.83;2.70;;;20.50;99.90;;;;;;5054047;28;20447;-61
2022/10/01 12:27:00;;;;;;;1.80;1.70;;;20.50;99.90;;;;;;5053425;28;20531;-61
2022/10/01 12:29:39;;;;;;;2.83;1.50;;;20.60;99.90;;;;;;5053793;28;20440;-63
2022/10/01 12:32:13;;;;;;;2.27;2.07;;;20.60;99.90;;;;;;5053768;28;20459;-63
2022/10/01 12:34:49;;;;;;;2.60;2.23;;;20.60;99.90;;;;;;5053694;28;20440;-63
2022/10/01 12:37:30;;;;;;;2.10;1.40;;;20.60;99.90;;;;;;5053000;28;20448;-62
2022/10/01 12:40:16;;;;;;;1.57;1.40;;;20.60;99.90;;;;;;5052767;28;20613;-62
2022/10/01 12:43:27;;;;;;;1.40;1.30;;;20.60;99.90;;;;;;5052706;28;20452;-63
2022/10/01 12:46:02;;;;;;;2.50;1.80;;;20.60;99.90;;;;;;5051571;28;20463;-59
2022/10/01 12:48:36;;;;;;;2.73;1.33;;;20.60;99.90;;;;;;5052750;28;20968;-61
2022/10/01 12:51:30;;;;;;;2.80;2.40;;;20.60;99.90;;;;;;5052910;28;20825;-60
2022/10/01 12:54:06;;;;;;;2.63;1.33;;;20.60;99.90;;;;;;5052731;28;20472;-60
2022/10/01 12:56:38;;;;;;;2.93;1.77;;;20.60;99.90;;;;;;5052424;28;20444;-59
2022/10/01 12:59:28;;;;;;;1.73;1.30;;;20.60;99.90;;;;;;5052716;28;20555;-60
2022/10/01 13:02:15;;;;;;;2.53;1.10;;;20.60;99.90;;;;;;5052691;28;21073;-59
2022/10/01 13:05:07;;;;;;;1.20;1.17;;;20.60;99.90;;;;;;5052946;28;20816;-61
2022/10/01 13:07:45;;;;;;;1.93;1.43;;;20.60;99.90;;;;;;5051687;28;20524;-59
2022/10/01 13:10:25;;;;;;;1.20;1.17;;;20.60;99.90;;;;;;5052474;28;20969;-62
2022/10/01 13:13:00;;;;;;;1.50;1.40;;;20.60;99.90;;;;;;5052423;28;20992;-61
2022/10/01 13:15:31;;;;;;;2.13;1.23;;;20.60;99.90;;;;;;5052693;28;20860;-62
2022/10/01 13:18:09;;;;;;;1.50;1.40;;;20.60;99.90;;;;;;5052829;28;20494;-58
2022/10/01 13:20:42;;;;;;;1.70;1.60;;;20.60;99.90;;;;;;5052825;28;20492;-63
2022/10/01 13:23:16;;;;;;;1.30;1.20;;;20.60;99.90;;;;;;5052715;28;20954;-63
2022/10/01 13:25:51;;;;;;;3.20;1.27;;;20.60;99.90;;;;;;5051803;28;20514;-63
2022/10/01 13:28:24;;;;;;;1.93;1.30;;;20.70;99.90;;;;;;5032329;28;20531;-62
2022/10/01 13:30:58;;;;;;;1.33;1.20;;;20.70;99.90;;;;;;5033150;28;20465;-61
2022/10/01 13:33:28;;;;;;;2.17;2.07;;;20.70;99.90;;;;;;5034274;28;20480;-60
2022/10/01 13:35:58;;;;;;;3.00;1.47;;;20.70;99.90;;;;;;5041333;28;20471;-62
2022/10/01 13:38:30;;;;;;;2.50;1.73;;;20.70;99.90;;;;;;5052844;28;20809;-62
2022/10/01 13:41:00;;;;;;;2.40;1.50;;;20.70;99.90;;;;;;5052375;28;20997;-63
2022/10/01 13:43:28;;;;;;;1.57;1.10;;;20.80;99.90;;;;;;5052792;28;20453;-63
2022/10/01 13:46:04;;;;;;;1.70;1.60;;;20.80;99.90;;;;;;5052289;28;20535;-62
2022/10/01 13:48:34;;;;;;;2.87;1.60;;;20.80;99.90;;;;;;5052131;28;20451;-63
2022/10/01 13:51:03;;;;;;;2.80;1.30;;;20.80;99.90;;;;;;5052718;28;20540;-63
2022/10/01 13:53:33;;;;;;;2.37;1.87;;;20.80;99.90;;;;;;5051913;28;20498;-62
2022/10/01 13:56:01;;;;;;;2.73;2.03;;;20.80;99.90;;;;;;5051759;28;20452;-63
2022/10/01 13:58:38;;;;;;;1.10;1.00;;;20.80;99.90;;;;;;5053779;28;20460;-63
2022/10/01 14:01:25;;;;;;;5.30;1.33;;;20.80;99.90;;;;;;5051811;28;20488;-63
2022/10/01 14:04:03;;;;;;;2.00;1.53;;;20.80;99.90;;;;;;5052018;28;20456;-64
2022/10/01 14:06:38;;;;;;;3.20;1.47;;;20.90;99.90;;;;;;5051932;28;20813;-63
2022/10/01 14:09:10;;;;;;;1.97;0.97;;;20.90;99.90;;;;;;5052041;28;20448;-62
2022/10/01 14:17:18;;;;;;;2.65;1.60;;;20.90;99.90;;;;;;5050542;28;20415;-64
2022/10/01 14:19:49;;;;;;;4.33;2.10;;;20.90;99.90;;;;;;5052418;28;20292;-67
2022/10/01 14:22:28;;;;;;;2.40;2.20;;;20.90;99.90;;;;;;5055795;28;20480;-63
2022/10/01 14:25:13;;;;;;;3.10;2.50;;;21.00;99.90;;;;;;5055272;28;20956;-64
2022/10/01 14:27:45;;;;;;;5.70;4.27;;;21.00;99.90;;;;;;5055084;28;20454;-62
2022/10/01 14:30:15;;;;;;;7.70;4.60;;;21.00;99.90;;;;;;5055659;28;20472;-62
2022/10/01 14:33:12;;;;;;;14.53;6.13;;;21.00;99.90;;;;;;5055670;28;20448;-63
2022/10/01 14:35:47;;;;;;;9.63;5.63;;;21.00;99.90;;;;;;5056146;28;20873;-71
2022/10/01 14:38:19;;;;;;;12.27;7.27;;;21.00;99.90;;;;;;5055597;28;20486;-65
2022/10/01 14:40:48;;;;;;;6.77;4.20;;;21.00;99.90;;;;;;5055698;28;20491;-65
2022/10/01 14:43:18;;;;;;;5.30;3.87;;;21.00;99.40;;;;;;5055751;28;20440;-65
2022/10/01 14:45:56;;;;;;;6.20;4.47;;;21.00;99.60;;;;;;5055089;28;20448;-64
2022/10/01 14:48:24;;;;;;;4.50;4.00;;;21.00;99.90;;;;;;5055186;28;20450;-63
2022/10/01 14:50:54;;;;;;;9.05;5.70;;;21.00;99.90;;;;;;5054132;28;20935;-69
2022/10/01 14:53:23;;;;;;;7.93;3.90;;;21.00;99.90;;;;;;5055211;28;20227;-69
2022/10/01 14:55:54;;;;;;;7.13;3.60;;;21.00;99.90;;;;;;5054895;28;20447;-68
2022/10/01 14:58:27;;;;;;;4.50;2.63;;;21.00;99.90;;;;;;5056551;28;20456;-65
2022/10/01 15:00:55;;;;;;;5.80;3.63;;;21.00;99.90;;;;;;5058192;28;20490;-67
2022/10/01 15:03:22;;;;;;;5.50;3.17;;;21.00;99.90;;;;;;5059915;28;20523;-66
2022/10/01 15:06:01;;;;;;;5.80;3.20;;;21.00;99.90;;;;;;5059197;28;20527;-67
2022/10/01 15:08:38;;;;;;;6.73;4.03;;;21.00;99.90;;;;;;5059315;28;20547;-66
2022/10/01 15:11:07;;;;;;;7.63;4.43;;;21.00;99.90;;;;;;5056652;28;20539;-66
2022/10/01 15:13:38;;;;;;;6.20;3.40;;;21.00;99.90;;;;;;5058471;28;20527;-68
2022/10/01 15:16:10;;;;;;;3.30;2.70;;;20.90;99.90;;;;;;5057826;28;20555;-68
2022/10/01 15:18:37;;;;;;;7.17;3.37;;;20.90;99.90;;;;;;5055224;28;20528;-69
2022/10/01 15:21:07;;;;;;;3.23;2.23;;;20.90;99.90;;;;;;5054850;28;20582;-68
2022/10/01 15:23:40;;;;;;;7.80;3.20;;;20.90;99.90;;;;;;5054892;28;20996;-70
2022/10/01 15:26:11;;;;;;;4.53;2.90;;;20.90;99.90;;;;;;5055020;28;20531;-69
2022/10/01 15:28:38;;;;;;;4.73;2.67;;;20.90;99.90;;;;;;5054701;28;20515;-67
2022/10/01 15:31:06;;;;;;;2.67;2.13;;;20.90;99.90;;;;;;5054229;28;20547;-68
2022/10/01 15:33:35;;;;;;;3.27;2.73;;;20.90;99.90;;;;;;5054434;28;20444;-67
2022/10/01 15:36:04;;;;;;;4.00;2.20;;;20.90;99.90;;;;;;5054440;28;20499;-66
2022/10/01 15:38:33;;;;;;;5.20;2.33;;;20.90;99.90;;;;;;5055492;28;20527;-68
2022/10/01 15:41:02;;;;;;;7.27;2.00;;;20.90;99.90;;;;;;5055491;28;20491;-68
2022/10/01 15:43:35;;;;;;;5.03;2.10;;;20.90;99.90;;;;;;5054275;28;20440;-70
2022/10/01 15:46:27;;;;;;;3.13;1.80;;;20.90;99.90;;;;;;5055762;28;20441;-68
2022/10/01 15:49:17;;;;;;;3.50;2.03;;;20.90;99.90;;;;;;5054844;28;20444;-70
2022/10/01 15:52:48;;;;;;;2.67;1.70;;;20.90;99.90;;;;;;5055117;28;20547;-68
2022/10/01 15:54:37;;;;;;;3.87;1.90;;;20.90;99.90;;;;;;5054984;28;20444;-70
2022/10/01 15:57:05;;;;;;;2.03;1.80;;;20.90;99.90;;;;;;5054084;28;20476;-69
2022/10/01 15:59:34;;;;;;;3.43;2.00;;;20.90;99.90;;;;;;5054326;28;20941;-70
2022/10/01 16:02:01;;;;;;;3.50;1.63;;;20.90;99.90;;;;;;5054925;28;20484;-71
2022/10/01 16:04:28;;;;;;;2.63;1.50;;;20.80;99.90;;;;;;5060975;28;20448;-68
2022/10/01 16:06:54;;;;;;;1.77;1.37;;;20.80;99.90;;;;;;5059998;28;20484;-70
2022/10/01 19:15:48;;;;;;;2.77;1.63;;;21.30;99.90;;;;;;5082538;27;20546;-66
2022/10/01 19:18:41;;;;;;;5.05;2.58;;;21.20;99.90;;;;;;5085318;28;20433;-69
2022/10/01 19:21:20;;;;;;;3.27;2.03;;;21.30;99.90;;;;;;5090172;28;20221;-65
2022/10/01 19:24:21;;;;;;;3.23;1.83;;;21.40;99.90;;;;;;5091508;28;20450;-65
2022/10/01 19:26:57;;;;;;;4.07;1.70;;;21.50;99.90;;;;;;5071979;28;20949;-65
2022/10/01 19:29:39;;;;;;;3.90;3.37;;;21.50;99.80;;;;;;5069228;28;20486;-63
2022/10/01 19:32:13;;;;;;;2.83;2.37;;;21.40;99.80;;;;;;5069457;28;20494;-65
2022/10/01 19:34:46;;;;;;;3.10;2.80;;;21.40;99.70;;;;;;5069827;28;20478;-64
2022/10/01 19:37:19;;;;;;;2.47;1.53;;;21.40;99.70;;;;;;5070399;28;20467;-64
2022/10/01 19:39:50;;;;;;;3.07;1.90;;;21.40;99.80;;;;;;5069986;28;20809;-64
2022/10/01 19:42:22;;;;;;;2.43;2.10;;;21.40;99.80;;;;;;5069434;28;20544;-64
2022/10/01 19:44:58;;;;;;;3.20;1.53;;;21.40;99.90;;;;;;5068602;28;20443;-64
2022/10/01 19:47:36;;;;;;;2.10;1.57;;;21.40;99.90;;;;;;5086615;28;20450;-62
2022/10/01 19:50:16;;;;;;;1.67;1.57;;;21.40;99.90;;;;;;5088576;28;20801;-64
2022/10/01 19:52:47;;;;;;;2.33;1.87;;;21.40;99.90;;;;;;5088596;28;20446;-64
2022/10/01 19:55:18;;;;;;;2.00;1.50;;;21.40;99.90;;;;;;5088292;28;20486;-65
2022/10/01 19:57:46;;;;;;;2.03;1.83;;;21.40;99.80;;;;;;5068110;28;20863;-65
2022/10/01 20:00:18;;;;;;;3.57;3.27;;;21.40;99.70;;;;;;5068365;28;20865;-65
2022/10/01 20:02:55;;;;;;;3.67;2.47;;;21.40;99.60;;;;;;5068254;28;20455;-65
2022/10/01 20:05:28;;;;;;;2.40;2.20;;;21.40;99.70;;;;;;5068103;28;20452;-65
